Time;durP1;ratioP1;P1;durP2;ratioP2;P2;SDS_P1;SDS_P2;PMS_P1;PMS_P2;Temp;Humidity;BMP_temperature;BMP_pressure;BME280_temperature;BME280_humidity;BME280_pressure;Samples;Min_cycle;Max_cycle;Signal;HPM_P1;HPM_P2
2022/04/04 00:01:16;;;;;;;0.20;0.20;;;;;;;;;;5062787;28;20239;-73
2022/04/04 00:03:42;;;;;;;0.20;0.20;;;;;;;;;;5071488;28;20350;-75
2022/04/04 00:06:11;;;;;;;0.20;0.20;;;;;;;;;;5062331;28;20262;-73
2022/04/04 00:08:38;;;;;;;0.20;0.20;;;;;;;;;;5071960;28;20503;-71
2022/04/04 00:11:06;;;;;;;0.20;0.20;;;;;;;;;;5061422;28;20352;-73
2022/04/04 00:13:33;;;;;;;0.20;0.20;;;;;;;;;;5072352;28;20257;-73
2022/04/04 00:15:59;;;;;;;0.20;0.20;;;;;;;;;;5061032;28;20264;-72
2022/04/04 00:18:26;;;;;;;0.20;0.20;;;;;;;;;;5072925;28;20372;-73
2022/04/04 00:20:52;;;;;;;0.20;0.20;;;;;;;;;;5059888;28;20259;-73
2022/04/04 00:23:21;;;;;;;0.20;0.20;;;;;;;;;;5073725;28;20439;-71
2022/04/04 00:25:48;;;;;;;0.20;0.20;;;;;;;;;;5059495;28;20477;-73
2022/04/04 00:28:15;;;;;;;0.20;0.20;;;;;;;;;;5074016;28;20200;-72
2022/04/04 00:30:43;;;;;;;0.20;0.20;;;;;;;;;;5057194;28;20243;-74
2022/04/04 00:33:09;;;;;;;0.20;0.20;;;;;;;;;;5074550;28;20212;-72
2022/04/04 00:35:36;;;;;;;0.20;0.20;;;;;;;;;;5057655;28;20258;-72
2022/04/04 00:38:04;;;;;;;0.20;0.20;;;;;;;;;;5075282;28;20200;-73
2022/04/04 00:40:31;;;;;;;0.30;0.30;;;;;;;;;;5056846;28;20314;-72
2022/04/04 00:42:58;;;;;;;0.20;0.20;;;;;;;;;;5063049;28;20204;-72
2022/04/04 00:45:25;;;;;;;0.20;0.20;;;;;;;;;;5056287;28;20311;-71
2022/04/04 00:47:51;;;;;;;0.20;0.20;;;;;;;;;;5076795;28;20238;-73
2022/04/04 00:50:18;;;;;;;0.20;0.20;;;;;;;;;;5055069;28;20263;-72
2022/04/04 00:52:44;;;;;;;0.20;0.20;;;;;;;;;;5077407;28;20204;-74
2022/04/04 00:55:11;;;;;;;0.20;0.20;;;;;;;;;;5054113;28;20207;-73
2022/04/04 00:57:40;;;;;;;0.20;0.20;;;;;;;;;;5077888;28;20204;-73
2022/04/04 01:00:09;;;;;;;0.20;0.20;;;;;;;;;;5056664;28;20268;-71
2022/04/04 01:02:35;;;;;;;0.20;0.20;;;;;;;;;;5078251;28;20242;-72
2022/04/04 01:05:02;;;;;;;0.20;0.20;;;;;;;;;;5063067;28;20279;-73
2022/04/04 01:07:29;;;;;;;0.20;0.20;;;;;;;;;;5068472;28;20444;-73
2022/04/04 01:09:57;;;;;;;0.20;0.20;;;;;;;;;;5063159;28;20204;-72
2022/04/04 01:12:24;;;;;;;0.20;0.20;;;;;;;;;;5066434;28;20261;-72
2022/04/04 01:14:52;;;;;;;0.20;0.20;;;;;;;;;;5063149;28;20211;-73
2022/04/04 01:17:21;;;;;;;0.20;0.20;;;;;;;;;;5068464;28;20243;-74
2022/04/04 01:19:47;;;;;;;0.23;0.23;;;;;;;;;;5063281;28;20238;-73
2022/04/04 01:22:14;;;;;;;0.20;0.20;;;;;;;;;;5068613;28;20423;-73
2022/04/04 01:24:42;;;;;;;0.20;0.20;;;;;;;;;;5063309;28;20219;-73
2022/04/04 01:27:10;;;;;;;0.23;0.23;;;;;;;;;;5068600;28;20246;-72
2022/04/04 01:29:36;;;;;;;0.20;0.20;;;;;;;;;;5063165;28;20199;-73
2022/04/04 01:32:03;;;;;;;0.20;0.20;;;;;;;;;;5067966;28;20250;-73
2022/04/04 01:34:30;;;;;;;0.20;0.20;;;;;;;;;;5063239;28;20212;-73
2022/04/04 01:36:57;;;;;;;0.20;0.20;;;;;;;;;;5067016;28;20259;-72
2022/04/04 01:39:23;;;;;;;0.20;0.20;;;;;;;;;;5064006;28;20516;-73
2022/04/04 01:41:53;;;;;;;0.20;0.20;;;;;;;;;;5066080;28;20249;-72
2022/04/04 01:44:19;;;;;;;0.20;0.20;;;;;;;;;;5064280;28;20426;-72
2022/04/04 01:46:46;;;;;;;0.30;0.30;;;;;;;;;;5066010;28;20243;-74
2022/04/04 01:49:12;;;;;;;0.20;0.20;;;;;;;;;;5065249;28;20213;-72
2022/04/04 01:51:39;;;;;;;0.23;0.23;;;;;;;;;;5064805;28;20238;-72
2022/04/04 01:54:05;;;;;;;0.20;0.20;;;;;;;;;;5066215;28;20199;-73
2022/04/04 01:56:32;;;;;;;0.20;0.20;;;;;;;;;;5063232;28;20246;-72
2022/04/04 01:59:00;;;;;;;0.20;0.20;;;;;;;;;;5066911;28;20355;-73
2022/04/04 02:01:27;;;;;;;0.20;0.20;;;;;;;;;;5062740;28;20250;-73
2022/04/04 02:03:54;;;;;;;0.20;0.20;;;;;;;;;;5067488;28;20199;-72
2022/04/04 02:06:20;;;;;;;0.20;0.20;;;;;;;;;;5062464;28;20245;-73
2022/04/04 02:08:47;;;;;;;0.20;0.20;;;;;;;;;;5067788;28;20279;-72
2022/04/04 02:11:14;;;;;;;0.20;0.20;;;;;;;;;;5060808;28;20243;-74
2022/04/04 02:13:41;;;;;;;0.30;0.30;;;;;;;;;;5069068;28;20214;-73
2022/04/04 02:16:09;;;;;;;0.20;0.20;;;;;;;;;;5060454;28;20306;-73
2022/04/04 02:18:35;;;;;;;0.20;0.20;;;;;;;;;;5069890;28;20204;-72
2022/04/04 02:21:02;;;;;;;0.20;0.20;;;;;;;;;;5059539;28;20303;-72
2022/04/04 02:23:28;;;;;;;0.20;0.20;;;;;;;;;;5070937;28;20211;-73
2022/04/04 02:25:56;;;;;;;0.20;0.20;;;;;;;;;;5062703;28;20262;-73
2022/04/04 02:28:24;;;;;;;0.20;0.20;;;;;;;;;;5075254;28;20210;-72
2022/04/04 02:30:51;;;;;;;0.30;0.30;;;;;;;;;;5062434;28;20234;-73
2022/04/04 02:33:19;;;;;;;0.20;0.20;;;;;;;;;;5075850;28;20204;-72
2022/04/04 02:35:46;;;;;;;0.20;0.20;;;;;;;;;;5060127;28;20246;-74
2022/04/04 02:38:12;;;;;;;0.50;0.50;;;;;;;;;;5076365;28;20269;-73
2022/04/04 02:40:39;;;;;;;0.20;0.20;;;;;;;;;;5059556;28;20247;-74
2022/04/04 02:43:06;;;;;;;0.20;0.20;;;;;;;;;;5077501;28;20276;-73
2022/04/04 02:45:33;;;;;;;0.20;0.20;;;;;;;;;;5059854;28;20239;-73
2022/04/04 02:48:00;;;;;;;0.20;0.20;;;;;;;;;;5077785;28;20204;-72
2022/04/04 02:50:28;;;;;;;0.20;0.20;;;;;;;;;;5058636;28;20357;-73
2022/04/04 02:52:55;;;;;;;0.20;0.20;;;;;;;;;;5078991;28;20200;-72
2022/04/04 02:58:06;;;;;;;0.20;0.20;;;;;;;;;;5077127;28;20222;-73
2022/04/04 03:00:32;;;;;;;0.20;0.20;;;;;;;;;;5058872;28;20285;-72
2022/04/04 03:02:59;;;;;;;0.20;0.20;;;;;;;;;;5077884;28;20521;-73
2022/04/04 03:05:26;;;;;;;0.20;0.20;;;;;;;;;;5053838;28;20525;-73
2022/04/04 03:07:56;;;;;;;0.20;0.20;;;;;;;;;;5065697;28;20396;-73
2022/04/04 03:10:22;;;;;;;0.30;0.30;;;;;;;;;;5057939;28;20498;-74
2022/04/04 03:12:49;;;;;;;0.20;0.20;;;;;;;;;;5078564;28;20511;-72
2022/04/04 03:15:17;;;;;;;0.20;0.20;;;;;;;;;;5055734;28;20207;-74
2022/04/04 03:17:44;;;;;;;0.20;0.20;;;;;;;;;;5079364;28;20458;-72
2022/04/04 03:20:11;;;;;;;0.20;0.20;;;;;;;;;;5056280;28;20211;-73
2022/04/04 03:22:38;;;;;;;0.20;0.20;;;;;;;;;;5080450;28;20457;-72
2022/04/04 03:25:08;;;;;;;0.20;0.20;;;;;;;;;;5063646;28;20227;-74
2022/04/04 03:27:35;;;;;;;0.20;0.20;;;;;;;;;;5080486;28;20212;-72
2022/04/04 03:30:03;;;;;;;0.20;0.20;;;;;;;;;;5065607;28;20215;-73
2022/04/04 03:32:29;;;;;;;0.30;0.30;;;;;;;;;;5053902;28;20270;-73
2022/04/04 03:34:56;;;;;;;0.20;0.20;;;;;;;;;;5065035;28;20236;-72
2022/04/04 03:37:22;;;;;;;0.20;0.20;;;;;;;;;;5070436;28;20262;-72
2022/04/04 03:39:49;;;;;;;0.20;0.20;;;;;;;;;;5065441;28;20553;-73
2022/04/04 03:42:17;;;;;;;0.30;0.30;;;;;;;;;;5070287;28;20241;-72
2022/04/04 03:44:43;;;;;;;0.20;0.20;;;;;;;;;;5065059;28;20272;-73
2022/04/04 03:47:10;;;;;;;0.20;0.20;;;;;;;;;;5068856;28;20324;-72
2022/04/04 03:49:36;;;;;;;0.23;0.23;;;;;;;;;;5065447;28;20216;-72
2022/04/04 03:52:03;;;;;;;0.20;0.20;;;;;;;;;;5069588;28;20297;-73
2022/04/04 03:54:30;;;;;;;0.20;0.20;;;;;;;;;;5065003;28;20245;-72
2022/04/04 03:56:57;;;;;;;0.30;0.30;;;;;;;;;;5068821;28;20546;-74
2022/04/04 03:59:26;;;;;;;0.30;0.30;;;;;;;;;;5064850;28;20204;-72
2022/04/04 04:01:53;;;;;;;0.20;0.20;;;;;;;;;;5066984;28;20302;-72
2022/04/04 04:04:21;;;;;;;0.20;0.20;;;;;;;;;;5067452;28;20259;-73
2022/04/04 04:06:48;;;;;;;0.20;0.20;;;;;;;;;;5066504;28;20234;-74
2022/04/04 04:09:15;;;;;;;0.20;0.20;;;;;;;;;;5067941;28;20215;-72
2022/04/04 04:11:41;;;;;;;0.20;0.20;;;;;;;;;;5066730;28;20277;-72
2022/04/04 04:14:08;;;;;;;0.20;0.20;;;;;;;;;;5067751;28;20246;-73
2022/04/04 04:16:37;;;;;;;0.20;0.20;;;;;;;;;;5065236;28;20281;-73
2022/04/04 04:20:19;;;;;;;0.20;0.20;;;;;;;;;;5068366;28;20470;-73
2022/04/04 04:21:53;;;;;;;0.20;0.20;;;;;;;;;;5068029;28;20570;-73
2022/04/04 04:24:19;;;;;;;0.20;0.20;;;;;;;;;;5065628;28;20400;-73
2022/04/04 04:26:46;;;;;;;0.30;0.30;;;;;;;;;;5067082;28;20262;-75
2022/04/04 04:29:13;;;;;;;0.20;0.20;;;;;;;;;;5066607;28;20218;-73
2022/04/04 04:31:40;;;;;;;0.20;0.20;;;;;;;;;;5057239;28;20300;-73
2022/04/04 04:34:07;;;;;;;0.20;0.20;;;;;;;;;;5064251;28;20238;-74
2022/04/04 04:36:33;;;;;;;0.20;0.20;;;;;;;;;;5065219;28;20238;-73
2022/04/04 04:39:02;;;;;;;0.20;0.20;;;;;;;;;;5068138;28;20196;-73
2022/04/04 04:41:28;;;;;;;0.23;0.23;;;;;;;;;;5064784;28;20425;-73
2022/04/04 04:43:56;;;;;;;0.20;0.20;;;;;;;;;;5068521;28;20203;-74
2022/04/04 04:46:22;;;;;;;0.20;0.20;;;;;;;;;;5062946;28;20263;-73
2022/04/04 04:48:50;;;;;;;0.83;0.83;;;;;;;;;;5068824;28;20262;-73
2022/04/04 04:51:19;;;;;;;0.20;0.20;;;;;;;;;;5062264;28;20239;-73
2022/04/04 04:53:46;;;;;;;0.20;0.20;;;;;;;;;;5069895;28;20231;-74
2022/04/04 04:56:12;;;;;;;0.20;0.20;;;;;;;;;;5062117;28;20238;-73
2022/04/04 04:58:38;;;;;;;0.20;0.20;;;;;;;;;;5070537;28;20211;-73
2022/04/04 05:01:05;;;;;;;0.20;0.20;;;;;;;;;;5061002;28;20239;-73
2022/04/04 05:03:31;;;;;;;0.20;0.20;;;;;;;;;;5071144;28;20205;-73
2022/04/04 05:05:59;;;;;;;0.20;0.20;;;;;;;;;;5059943;28;20280;-74
2022/04/04 05:08:26;;;;;;;0.20;0.20;;;;;;;;;;5072075;28;20235;-74
2022/04/04 05:10:52;;;;;;;0.20;0.20;;;;;;;;;;5058907;28;20243;-74
2022/04/04 05:13:19;;;;;;;0.20;0.20;;;;;;;;;;5072391;28;20231;-73
2022/04/04 05:15:45;;;;;;;0.20;0.20;;;;;;;;;;5057502;28;20239;-72
2022/04/04 05:18:12;;;;;;;0.20;0.20;;;;;;;;;;5073591;28;20235;-72
2022/04/04 05:20:39;;;;;;;0.27;0.27;;;;;;;;;;5057173;28;20302;-73
2022/04/04 05:23:06;;;;;;;0.20;0.20;;;;;;;;;;5074194;28;20531;-73
2022/04/04 05:25:33;;;;;;;0.20;0.20;;;;;;;;;;5056760;28;20248;-74
2022/04/04 05:27:59;;;;;;;0.30;0.30;;;;;;;;;;5075032;28;20247;-74
2022/04/04 05:30:26;;;;;;;0.20;0.20;;;;;;;;;;5055855;28;20249;-73
2022/04/04 05:32:53;;;;;;;0.20;0.20;;;;;;;;;;5075772;28;20192;-73
2022/04/04 05:35:19;;;;;;;0.20;0.20;;;;;;;;;;5054470;28;20214;-72
2022/04/04 05:37:46;;;;;;;0.20;0.20;;;;;;;;;;5076328;28;20443;-74
2022/04/04 05:40:14;;;;;;;0.20;0.20;;;;;;;;;;5053193;28;20203;-74
2022/04/04 05:42:42;;;;;;;0.93;0.50;;;;;;;;;;5077179;28;20184;-73
2022/04/04 05:45:09;;;;;;;0.20;0.20;;;;;;;;;;5053176;28;20227;-73
2022/04/04 05:47:36;;;;;;;0.20;0.20;;;;;;;;;;5077743;28;20192;-73
2022/04/04 05:50:02;;;;;;;0.20;0.20;;;;;;;;;;5062598;28;20207;-73
2022/04/04 05:52:28;;;;;;;0.20;0.20;;;;;;;;;;5051933;28;20251;-73
2022/04/04 05:54:57;;;;;;;0.83;0.83;;;;;;;;;;5063155;28;20200;-73
2022/04/04 05:57:28;;;;;;;0.20;0.20;;;;;;;;;;5068224;28;20433;-73
2022/04/04 05:59:55;;;;;;;0.20;0.20;;;;;;;;;;5063275;28;20392;-72
2022/04/04 06:02:22;;;;;;;0.20;0.20;;;;;;;;;;5068779;28;20312;-72
2022/04/04 06:04:51;;;;;;;0.20;0.20;;;;;;;;;;5062436;28;20359;-72
2022/04/04 06:07:17;;;;;;;0.20;0.20;;;;;;;;;;5068127;28;20365;-73
2022/04/04 06:09:44;;;;;;;0.20;0.20;;;;;;;;;;5063086;28;20204;-72
2022/04/04 06:12:10;;;;;;;0.20;0.20;;;;;;;;;;5067978;28;20239;-73
2022/04/04 06:14:38;;;;;;;0.20;0.20;;;;;;;;;;5062289;28;20263;-74
2022/04/04 06:17:06;;;;;;;0.20;0.20;;;;;;;;;;5067755;28;20243;-72
2022/04/04 06:19:34;;;;;;;0.20;0.20;;;;;;;;;;5062814;28;20208;-71
2022/04/04 06:22:00;;;;;;;0.27;0.27;;;;;;;;;;5051430;28;20244;-72
2022/04/04 06:24:28;;;;;;;0.20;0.20;;;;;;;;;;5062928;28;20268;-73
2022/04/04 06:26:55;;;;;;;0.20;0.20;;;;;;;;;;5066375;28;20239;-72
2022/04/04 06:29:22;;;;;;;0.27;0.27;;;;;;;;;;5063457;28;20227;-72
2022/04/04 06:31:51;;;;;;;0.20;0.20;;;;;;;;;;5065582;28;20240;-74
2022/04/04 06:34:17;;;;;;;0.40;0.40;;;;;;;;;;5064696;28;20279;-74
2022/04/04 06:36:44;;;;;;;0.20;0.20;;;;;;;;;;5064754;28;20616;-72
2022/04/04 06:39:10;;;;;;;0.20;0.20;;;;;;;;;;5065293;28;20223;-73
2022/04/04 06:41:37;;;;;;;0.70;0.70;;;;;;;;;;5064039;28;20493;-73
2022/04/04 06:44:04;;;;;;;0.20;0.20;;;;;;;;;;5066235;28;20210;-73
2022/04/04 06:46:30;;;;;;;0.20;0.20;;;;;;;;;;5063042;28;20235;-73
2022/04/04 06:48:58;;;;;;;0.20;0.20;;;;;;;;;;5066975;28;20234;-72
2022/04/04 06:51:24;;;;;;;0.20;0.20;;;;;;;;;;5062009;28;20298;-73
2022/04/04 06:53:51;;;;;;;0.20;0.20;;;;;;;;;;5067728;28;20213;-73
2022/04/04 06:56:18;;;;;;;0.20;0.20;;;;;;;;;;5059319;28;20246;-72
2022/04/04 06:58:45;;;;;;;0.20;0.20;;;;;;;;;;5068556;28;20206;-73
2022/04/04 07:01:14;;;;;;;0.20;0.20;;;;;;;;;;5060008;28;20299;-72
2022/04/04 07:03:40;;;;;;;0.20;0.20;;;;;;;;;;5068985;28;20216;-72
2022/04/04 07:06:10;;;;;;;0.20;0.20;;;;;;;;;;5059627;28;20236;-73
2022/04/04 07:08:36;;;;;;;0.57;0.57;;;;;;;;;;5069261;28;20373;-74
2022/04/04 07:11:03;;;;;;;0.20;0.20;;;;;;;;;;5061337;28;20245;-73
2022/04/04 07:13:31;;;;;;;0.20;0.20;;;;;;;;;;5073316;28;20262;-73
2022/04/04 07:15:59;;;;;;;0.20;0.20;;;;;;;;;;5062020;28;20248;-73
2022/04/04 07:18:29;;;;;;;0.30;0.30;;;;;;;;;;5073875;28;20223;-72
2022/04/04 07:20:55;;;;;;;0.20;0.20;;;;;;;;;;5060886;28;20282;-72
2022/04/04 07:23:23;;;;;;;0.20;0.20;;;;;;;;;;5075492;28;20201;-73
2022/04/04 07:25:49;;;;;;;0.57;0.57;;;;;;;;;;5059630;28;20304;-74
2022/04/04 07:28:16;;;;;;;0.80;0.80;;;;;;;;;;5076375;28;20207;-73
2022/04/04 07:30:43;;;;;;;0.20;0.20;;;;;;;;;;5059338;28;20393;-74
2022/04/04 07:33:15;;;;;;;0.20;0.20;;;;;;;;;;5077360;28;20557;-73
2022/04/04 07:35:41;;;;;;;0.20;0.20;;;;;;;;;;5058477;28;20508;-74
2022/04/04 07:38:08;;;;;;;0.50;0.50;;;;;;;;;;5076966;28;20241;-74
2022/04/04 07:40:38;;;;;;;0.20;0.20;;;;;;;;;;5058267;28;20304;-73
2022/04/04 07:43:05;;;;;;;0.37;0.37;;;;;;;;;;5076462;28;20274;-75
2022/04/04 07:45:31;;;;;;;0.40;0.40;;;;;;;;;;5057690;28;20240;-77
2022/04/04 07:47:58;;;;;;;0.20;0.20;;;;;;;;;;5076734;28;20447;-76
2022/04/04 07:50:25;;;;;;;0.57;0.57;;;;;;;;;;5055876;28;21549;-76
2022/04/04 07:52:51;;;;;;;0.20;0.20;;;;;;;;;;5077355;28;20216;-76
2022/04/04 07:55:18;;;;;;;0.87;0.87;;;;;;;;;;5052073;28;20205;-74
2022/04/04 07:57:48;;;;;;;0.33;0.33;;;;;;;;;;5042107;28;20230;-75
2022/04/04 08:00:17;;;;;;;0.30;0.30;;;;;;;;;;5030739;28;20220;-75
2022/04/04 08:02:44;;;;;;;0.20;0.20;;;;;;;;;;5027655;28;20264;-74
2022/04/04 08:05:10;;;;;;;0.27;0.27;;;;;;;;;;5030531;28;20375;-74
2022/04/04 08:07:40;;;;;;;0.43;0.43;;;;;;;;;;5006925;28;20483;-74
2022/04/04 08:10:08;;;;;;;0.20;0.20;;;;;;;;;;5012014;28;20362;-73
2022/04/04 08:12:35;;;;;;;0.20;0.20;;;;;;;;;;5002487;28;20270;-74
2022/04/04 08:15:06;;;;;;;0.20;0.20;;;;;;;;;;5002240;28;20512;-74
2022/04/04 08:17:33;;;;;;;0.20;0.20;;;;;;;;;;4976158;28;20602;-73
2022/04/04 08:19:59;;;;;;;0.20;0.20;;;;;;;;;;5002636;28;20207;-74
2022/04/04 08:22:26;;;;;;;0.20;0.20;;;;;;;;;;5004835;28;20253;-74
2022/04/04 08:24:52;;;;;;;0.20;0.20;;;;;;;;;;5021878;28;20287;-76
2022/04/04 08:27:18;;;;;;;0.20;0.20;;;;;;;;;;5010425;28;20246;-75
2022/04/04 08:29:45;;;;;;;0.20;0.20;;;;;;;;;;5002219;28;20231;-74
2022/04/04 08:32:13;;;;;;;0.20;0.20;;;;;;;;;;5009445;28;20301;-74
2022/04/04 08:34:39;;;;;;;0.77;0.77;;;;;;;;;;5021729;28;20272;-74
2022/04/04 08:37:08;;;;;;;0.30;0.30;;;;;;;;;;5040316;28;20295;-75
2022/04/04 08:39:34;;;;;;;0.83;0.83;;;;;;;;;;5043899;28;20217;-74
2022/04/04 08:42:03;;;;;;;0.20;0.20;;;;;;;;;;5063967;28;20241;-76
2022/04/04 08:44:29;;;;;;;0.63;0.63;;;;;;;;;;5064478;28;20265;-75
2022/04/04 08:46:56;;;;;;;0.30;0.30;;;;;;;;;;5038305;28;20272;-75
2022/04/04 08:49:28;;;;;;;0.20;0.20;;;;;;;;;;5041624;28;20208;-76
2022/04/04 08:51:54;;;;;;;0.63;0.63;;;;;;;;;;5017354;28;20244;-76
2022/04/04 08:54:21;;;;;;;0.20;0.20;;;;;;;;;;5039274;28;20255;-75
2022/04/04 08:56:47;;;;;;;0.60;0.60;;;;;;;;;;5005739;28;20495;-76
2022/04/04 08:59:13;;;;;;;0.13;0.13;;;;;;;;;;5018458;28;20201;-75
2022/04/04 09:01:41;;;;;;;1.37;0.37;;;;;;;;;;5011679;28;20248;-75
2022/04/04 09:04:13;;;;;;;0.20;0.20;;;;;;;;;;5038198;28;20310;-76
2022/04/04 09:06:48;;;;;;;0.20;0.20;;;;;;;;;;5005692;28;20466;-75
2022/04/04 09:09:18;;;;;;;0.20;0.20;;;;;;;;;;5019135;28;20203;-74
2022/04/04 09:11:51;;;;;;;1.07;0.97;;;;;;;;;;5017023;28;20242;-74
2022/04/04 09:14:21;;;;;;;0.23;0.23;;;;;;;;;;5043114;28;20239;-74
2022/04/04 09:16:53;;;;;;;0.67;0.67;;;;;;;;;;5060332;28;20238;-74
2022/04/04 09:19:27;;;;;;;0.63;0.63;;;;;;;;;;5064696;28;20237;-75
2022/04/04 09:21:55;;;;;;;0.50;0.50;;;;;;;;;;5067094;28;20572;-75
2022/04/04 09:24:21;;;;;;;0.20;0.20;;;;;;;;;;5064520;28;20371;-74
2022/04/04 09:26:48;;;;;;;0.20;0.20;;;;;;;;;;5065890;28;20246;-75
2022/04/04 09:29:16;;;;;;;0.20;0.20;;;;;;;;;;5065228;28;20206;-75
2022/04/04 09:31:58;;;;;;;0.20;0.20;;;;;;;;;;5051576;28;20640;-75
2022/04/04 09:34:24;;;;;;;0.20;0.20;;;;;;;;;;5062635;28;20199;-74
2022/04/04 09:36:51;;;;;;;0.20;0.20;;;;;;;;;;5066330;28;20265;-75
2022/04/04 09:39:19;;;;;;;0.20;0.20;;;;;;;;;;5064829;28;20218;-75
2022/04/04 09:41:45;;;;;;;0.30;0.30;;;;;;;;;;5065494;28;20245;-75
2022/04/04 09:44:12;;;;;;;0.30;0.30;;;;;;;;;;5065396;28;20195;-75
2022/04/04 09:46:39;;;;;;;0.10;0.10;;;;;;;;;;5064411;28;20242;-75
2022/04/04 09:49:07;;;;;;;0.40;0.40;;;;;;;;;;5066547;28;20433;-74
2022/04/04 09:51:43;;;;;;;0.20;0.20;;;;;;;;;;5063406;28;20561;-74
2022/04/04 09:54:11;;;;;;;0.30;0.30;;;;;;;;;;5065574;28;20353;-75
2022/04/04 09:56:39;;;;;;;0.23;0.23;;;;;;;;;;5063981;28;20626;-74
2022/04/04 09:59:06;;;;;;;0.20;0.20;;;;;;;;;;5066298;28;20208;-74
2022/04/04 10:01:33;;;;;;;2.77;1.70;;;;;;;;;;5063699;28;20249;-73
2022/04/04 10:04:01;;;;;;;0.10;0.10;;;;;;;;;;5066859;28;20222;-75
2022/04/04 10:06:28;;;;;;;0.20;0.20;;;;;;;;;;5053881;28;20253;-74
2022/04/04 10:08:56;;;;;;;0.20;0.20;;;;;;;;;;5067614;28;20253;-74
2022/04/04 10:11:23;;;;;;;2.10;1.23;;;;;;;;;;5061826;28;20254;-73
2022/04/04 10:13:52;;;;;;;0.20;0.20;;;;;;;;;;5068067;28;20387;-76
2022/04/04 10:16:19;;;;;;;0.10;0.10;;;;;;;;;;5061624;28;20294;-76
2022/04/04 10:18:46;;;;;;;4.70;4.40;;;;;;;;;;5068161;28;20241;-74
2022/04/04 10:21:13;;;;;;;0.30;0.30;;;;;;;;;;5054542;28;20235;-75
2022/04/04 10:23:41;;;;;;;0.20;0.20;;;;;;;;;;5069032;28;20204;-77
2022/04/04 10:26:08;;;;;;;0.73;0.73;;;;;;;;;;5059970;28;20242;-77
2022/04/04 10:28:35;;;;;;;0.20;0.20;;;;;;;;;;5070176;28;20210;-76
2022/04/04 10:31:11;;;;;;;0.53;0.53;;;;;;;;;;5055980;28;20311;-76
2022/04/04 10:33:38;;;;;;;0.20;0.20;;;;;;;;;;5081594;28;20448;-76
2022/04/04 10:36:30;;;;;;;0.93;0.93;;;;;;;;;;5070279;28;20343;-77
2022/04/04 10:39:14;;;;;;;0.10;0.10;;;;;;;;;;5080716;28;20257;-77
2022/04/04 10:41:40;;;;;;;0.20;0.20;;;;;;;;;;5031301;28;20287;-75
2022/04/04 10:44:12;;;;;;;1.23;1.23;;;;;;;;;;5020842;28;20277;-77
2022/04/04 10:46:50;;;;;;;0.70;0.37;;;;;;;;;;4999907;28;20248;-78
2022/04/04 10:49:21;;;;;;;0.63;0.63;;;;;;;;;;5004915;28;20296;-76
2022/04/04 11:25:33;;;;;;;0.10;0.10;;;;;;;;;;6095560;22;5199528;-77
2022/04/04 11:28:05;;;;;;;0.30;0.30;;;;;;;;;;6172153;23;20567;-80
2022/04/04 11:30:35;;;;;;;0.20;0.20;;;;;;;;;;6208638;23;20230;-77
2022/04/04 11:33:17;;;;;;;0.40;0.40;;;;;;;;;;6141681;23;20257;-77
2022/04/04 11:35:47;;;;;;;0.17;0.17;;;;;;;;;;6103555;23;20314;-77
2022/04/04 11:38:19;;;;;;;0.43;0.43;;;;;;;;;;6053749;23;20187;-76
2022/04/04 11:40:53;;;;;;;0.30;0.30;;;;;;;;;;6034254;23;20325;-77
2022/04/04 11:43:27;;;;;;;0.77;0.77;;;;;;;;;;6053372;23;20183;-76
2022/04/04 11:46:01;;;;;;;0.50;0.50;;;;;;;;;;6020563;23;20270;-77
2022/04/04 11:48:28;;;;;;;0.20;0.20;;;;;;;;;;5996991;24;20203;-76
2022/04/04 11:50:59;;;;;;;0.20;0.20;;;;;;;;;;5992701;23;20370;-77
2022/04/04 11:53:27;;;;;;;0.30;0.30;;;;;;;;;;6025076;23;20238;-74
2022/04/04 11:56:02;;;;;;;0.20;0.20;;;;;;;;;;6010840;23;20216;-75
2022/04/04 11:58:29;;;;;;;0.97;0.60;;;;;;;;;;6109234;23;20176;-77
2022/04/04 12:01:04;;;;;;;0.30;0.30;;;;;;;;;;6096889;23;20470;-77
2022/04/04 12:03:32;;;;;;;0.20;0.20;;;;;;;;;;6111044;23;20174;-77
2022/04/04 12:06:05;;;;;;;0.10;0.10;;;;;;;;;;6096744;23;20216;-75
2022/04/04 12:08:32;;;;;;;0.20;0.20;;;;;;;;;;6110588;23;20272;-74
2022/04/04 12:11:00;;;;;;;0.20;0.20;;;;;;;;;;6096271;23;20217;-75
2022/04/04 12:13:27;;;;;;;0.10;0.10;;;;;;;;;;6111132;23;20228;-77
2022/04/04 12:15:54;;;;;;;0.20;0.20;;;;;;;;;;6096783;23;20273;-77
2022/04/04 12:18:22;;;;;;;0.70;0.40;;;;;;;;;;6134455;23;20184;-73
2022/04/04 12:20:49;;;;;;;0.20;0.20;;;;;;;;;;6148593;23;20215;-74
2022/04/04 12:26:02;;;;;;;0.30;0.30;;;;;;;;;;6148816;23;20224;-74
2022/04/04 12:28:31;;;;;;;0.20;0.20;;;;;;;;;;6163385;23;20211;-75
2022/04/04 12:30:59;;;;;;;0.50;0.50;;;;;;;;;;6148799;23;20266;-74
2022/04/04 12:33:35;;;;;;;0.20;0.20;;;;;;;;;;6165498;23;20176;-75
2022/04/04 12:36:02;;;;;;;0.77;0.77;;;;;;;;;;6220075;23;20285;-74
2022/04/04 12:38:30;;;;;;;1.03;1.03;;;;;;;;;;6240561;23;20175;-76
2022/04/04 12:41:04;;;;;;;0.20;0.20;;;;;;;;;;6220949;23;20284;-75
2022/04/04 12:43:31;;;;;;;0.20;0.20;;;;;;;;;;6238286;23;20186;-77
2022/04/04 12:45:57;;;;;;;0.20;0.20;;;;;;;;;;6221336;23;20412;-76
2022/04/04 12:48:32;;;;;;;0.20;0.20;;;;;;;;;;6238931;23;20322;-74
2022/04/04 12:50:58;;;;;;;0.20;0.20;;;;;;;;;;6221368;23;20219;-76
2022/04/04 12:53:26;;;;;;;0.53;0.53;;;;;;;;;;6239136;23;20183;-76
2022/04/04 12:56:03;;;;;;;0.43;0.43;;;;;;;;;;6219717;23;20428;-74
2022/04/04 12:58:31;;;;;;;0.20;0.20;;;;;;;;;;6238556;23;20531;-75
2022/04/04 13:00:58;;;;;;;0.20;0.20;;;;;;;;;;6189323;23;20271;-76
2022/04/04 13:03:25;;;;;;;0.20;0.20;;;;;;;;;;6163756;23;20185;-74
2022/04/04 13:05:55;;;;;;;0.70;0.70;;;;;;;;;;6143702;23;20240;-78
2022/04/04 13:08:25;;;;;;;0.40;0.40;;;;;;;;;;6163182;23;20203;-77
2022/04/04 13:11:02;;;;;;;0.30;0.30;;;;;;;;;;6141680;23;20216;-77
2022/04/04 13:13:28;;;;;;;0.53;0.53;;;;;;;;;;6163778;23;20182;-76
2022/04/04 13:15:56;;;;;;;0.20;0.20;;;;;;;;;;6148501;23;20218;-73
2022/04/04 13:18:23;;;;;;;0.40;0.40;;;;;;;;;;6163515;23;20229;-74
2022/04/04 13:20:50;;;;;;;0.70;0.70;;;;;;;;;;6147240;23;20475;-75
2022/04/04 13:23:16;;;;;;;0.30;0.30;;;;;;;;;;6163605;23;20189;-75
2022/04/04 13:25:44;;;;;;;0.20;0.20;;;;;;;;;;6148600;23;20317;-74
2022/04/04 13:28:11;;;;;;;0.20;0.20;;;;;;;;;;6218942;23;20252;-75
2022/04/04 13:30:39;;;;;;;0.47;0.47;;;;;;;;;;6209793;23;20306;-77
2022/04/04 13:33:10;;;;;;;1.80;1.70;;;;;;;;;;6225471;23;20235;-76
2022/04/04 13:35:37;;;;;;;0.20;0.20;;;;;;;;;;6200183;23;20533;-76
2022/04/04 13:38:04;;;;;;;0.20;0.20;;;;;;;;;;6162852;23;20352;-77
2022/04/04 13:40:31;;;;;;;1.50;1.03;;;;;;;;;;6148513;23;20228;-75
2022/04/04 13:42:57;;;;;;;0.20;0.20;;;;;;;;;;6138105;23;20186;-76
2022/04/04 13:45:24;;;;;;;0.30;0.30;;;;;;;;;;6148117;23;20197;-76
2022/04/04 13:47:50;;;;;;;0.30;0.30;;;;;;;;;;6163013;23;20452;-75
2022/04/04 13:50:20;;;;;;;0.30;0.30;;;;;;;;;;6148056;23;20248;-75
2022/04/04 13:55:46;;;;;;;0.20;0.20;;;;;;;;;;6056981;23;20404;-73
2022/04/04 13:58:14;;;;;;;0.20;0.20;;;;;;;;;;6156883;23;20181;-74
2022/04/04 14:00:42;;;;;;;0.20;0.20;;;;;;;;;;6148297;23;20213;-74
2022/04/04 14:03:10;;;;;;;0.30;0.30;;;;;;;;;;6216059;23;20406;-76
2022/04/04 14:05:38;;;;;;;1.60;1.50;;;;;;;;;;6214171;23;20561;-75
2022/04/04 14:08:05;;;;;;;0.47;0.47;;;;;;;;;;6244360;23;20384;-77
2022/04/04 14:10:31;;;;;;;0.33;0.33;;;;;;;;;;6215504;23;20428;-76
2022/04/04 14:13:02;;;;;;;0.50;0.50;;;;;;;;;;6244071;23;20487;-78
2022/04/04 14:15:34;;;;;;;0.60;0.60;;;;;;;;;;6214614;23;20259;-75
2022/04/04 14:18:01;;;;;;;2.13;2.00;;;;;;;;;;6244035;23;20180;-75
2022/04/04 14:20:27;;;;;;;3.23;3.13;;;;;;;;;;6212620;23;20399;-77
2022/04/04 14:22:55;;;;;;;0.60;0.60;;;;;;;;;;6245919;23;20168;-76
2022/04/04 14:25:22;;;;;;;0.20;0.20;;;;;;;;;;6212243;23;20243;-73
2022/04/04 14:27:49;;;;;;;0.30;0.30;;;;;;;;;;6245915;23;20529;-77
2022/04/04 14:30:19;;;;;;;0.30;0.30;;;;;;;;;;6211486;23;20308;-74
2022/04/04 14:32:47;;;;;;;0.23;0.23;;;;;;;;;;6245637;23;20183;-73
2022/04/04 14:35:14;;;;;;;0.60;0.60;;;;;;;;;;6210760;23;20207;-76
2022/04/04 14:37:41;;;;;;;0.30;0.30;;;;;;;;;;6246777;23;20176;-77
2022/04/04 14:40:14;;;;;;;1.33;1.33;;;;;;;;;;6209918;23;20172;-75
2022/04/04 14:42:40;;;;;;;1.07;0.47;;;;;;;;;;6247278;23;20183;-75
2022/04/04 14:45:07;;;;;;;0.40;0.40;;;;;;;;;;6209853;23;20412;-75
2022/04/04 14:47:36;;;;;;;0.30;0.30;;;;;;;;;;6248033;23;20475;-74
2022/04/04 14:50:07;;;;;;;0.20;0.20;;;;;;;;;;6224472;23;20218;-75
2022/04/04 14:52:33;;;;;;;0.30;0.30;;;;;;;;;;6208163;23;20274;-74
2022/04/04 14:55:00;;;;;;;0.87;0.87;;;;;;;;;;6224459;23;20172;-76
2022/04/04 14:57:27;;;;;;;0.30;0.30;;;;;;;;;;6233365;23;20534;-75
2022/04/04 14:59:54;;;;;;;2.00;1.90;;;;;;;;;;6225003;23;20349;-75
2022/04/04 15:02:20;;;;;;;0.30;0.30;;;;;;;;;;6233303;23;20545;-76
2022/04/04 15:04:47;;;;;;;0.93;0.93;;;;;;;;;;6224378;23;20183;-74
2022/04/04 15:07:14;;;;;;;1.33;1.33;;;;;;;;;;6233439;23;20219;-74
2022/04/04 15:09:42;;;;;;;0.50;0.50;;;;;;;;;;6224609;23;20207;-75
2022/04/04 15:12:09;;;;;;;0.33;0.33;;;;;;;;;;6233441;23;20207;-74
2022/04/04 15:14:37;;;;;;;0.30;0.30;;;;;;;;;;6224928;23;20176;-74
2022/04/04 15:17:07;;;;;;;0.30;0.30;;;;;;;;;;6232590;23;20271;-77
2022/04/04 15:19:33;;;;;;;0.50;0.50;;;;;;;;;;6224766;23;20178;-76
2022/04/04 15:22:00;;;;;;;0.70;0.70;;;;;;;;;;6230862;23;20241;-75
2022/04/04 15:24:26;;;;;;;0.50;0.50;;;;;;;;;;6225426;23;20203;-76
2022/04/04 15:26:52;;;;;;;1.30;1.03;;;;;;;;;;6230164;23;20280;-77
2022/04/04 15:29:27;;;;;;;0.40;0.40;;;;;;;;;;6226692;23;20199;-75